Stickney, South Dakota
Current Conditions -  °F | °C
As of 9:53 PM on Saturday 22 Nov 2014 (Local Time) from KMHE Reporting Station
Broken Clouds Broken Clouds  
Wind Chill: 43°   Ceiling: 11000
Heat Index: 43°   Visibility: 10mi
Dew Point: 34°   Wind: 0mph
Humidity: 71%   Direction: NA
Pressure: 29.41"   Gusts: NA
Location:  43.59°N, 98.44°W
Report Text: KMHE 230353Z AUTO 00000KT 10SM BKN110 06/01 A2941 RMK AO2 SLP968 T00610011 $
Loading
Personal Weather Stations






























Interactive Weather Map New forecast layout! Learn more

10-Day Weather Forecast

Advertisements
Track Severe Weather on mobile